createdAt,value
2016-10-27T03:01:00.597Z,0
2016-10-27T03:01:26.150Z,0
2016-10-27T03:01:51.719Z,0
2016-10-27T03:02:17.279Z,0
2016-10-27T03:02:43.276Z,0
2016-10-27T03:03:08.835Z,0
2016-10-27T03:03:35.065Z,0
2016-10-27T03:04:00.619Z,0
2016-10-27T03:04:26.178Z,0
2016-10-27T03:04:52.457Z,0
2016-10-27T03:05:18.189Z,0
2016-10-27T03:05:44.221Z,0
2016-10-27T03:06:09.786Z,0
2016-10-27T03:06:35.341Z,0
2016-10-27T03:07:01.600Z,0
2016-10-27T03:07:27.164Z,0
2016-10-27T03:07:53.349Z,0
2016-10-27T03:08:18.897Z,0
2016-10-27T03:08:45.265Z,0
2016-10-27T03:09:10.848Z,0
2016-10-27T03:09:36.413Z,0
2016-10-27T03:10:02.661Z,0
2016-10-27T03:11:31.505Z,0
2016-10-27T03:11:57.060Z,0
2016-10-27T03:12:22.652Z,0
2016-10-27T03:12:48.210Z,0
2016-10-27T03:13:13.763Z,0
2016-10-27T03:13:39.424Z,0
2016-10-27T03:14:04.986Z,0
2016-10-27T03:14:30.554Z,0
2016-10-27T03:14:56.119Z,0
2016-10-27T03:15:21.662Z,0
2016-10-27T03:15:47.208Z,0
2016-10-27T03:16:12.741Z,0
2016-10-27T03:16:38.325Z,0
2016-10-27T03:17:03.878Z,0
2016-10-27T03:17:29.440Z,0
2016-10-27T03:17:55.006Z,0
2016-10-27T03:18:21.319Z,0
2016-10-27T03:18:46.944Z,0
2016-10-27T03:19:12.508Z,0
2016-10-27T03:19:38.054Z,0
2016-10-27T03:20:03.621Z,0
2016-10-27T03:20:29.288Z,0
2016-10-27T03:20:54.854Z,0
2016-10-27T03:21:20.496Z,0
2016-10-27T03:21:46.143Z,0
2016-10-27T03:22:11.708Z,0
2016-10-27T03:22:37.304Z,0
2016-10-27T03:23:02.972Z,0
2016-10-27T03:23:28.533Z,0
2016-10-27T03:23:54.156Z,0
2016-10-27T03:24:19.716Z,0
2016-10-27T03:24:45.280Z,0
2016-10-27T03:25:10.840Z,0
2016-10-27T03:26:34.696Z,0
2016-10-27T03:27:00.244Z,0
2016-10-27T03:27:25.989Z,0
2016-10-27T03:27:51.577Z,0
2016-10-27T03:28:17.131Z,0
2016-10-27T03:28:42.823Z,0
2016-10-27T03:29:08.393Z,0
2016-10-27T03:29:33.947Z,0
2016-10-27T03:29:59.603Z,0
2016-10-27T03:30:25.171Z,0
2016-10-27T03:30:50.734Z,0
2016-10-27T03:31:16.291Z,0
2016-10-27T03:32:24.589Z,0
2016-10-27T03:32:50.160Z,0
2016-10-27T03:33:15.731Z,0
2016-10-27T03:34:34.408Z,0
2016-10-27T03:35:00.032Z,0
2016-10-27T03:35:25.612Z,0
2016-10-27T03:35:51.226Z,0
2016-10-27T03:36:16.806Z,0
2016-10-27T03:36:42.370Z,0
2016-10-27T03:37:07.929Z,0
2016-10-27T03:37:33.664Z,0
2016-10-27T03:37:59.236Z,0
2016-10-27T03:38:24.816Z,0
2016-10-27T03:38:50.438Z,0
2016-10-27T03:39:16.045Z,0
2016-10-27T03:39:41.605Z,0
2016-10-27T03:40:07.139Z,0
2016-10-27T03:40:32.702Z,0
2016-10-27T03:41:51.294Z,0
2016-10-27T03:42:16.848Z,0
2016-10-27T03:44:32.772Z,0
2016-10-27T03:44:58.354Z,0
2016-10-27T03:45:23.927Z,0
2016-10-27T03:46:32.247Z,0
2016-10-27T03:46:57.808Z,0
2016-10-27T03:47:23.348Z,0
2016-10-27T03:47:48.908Z,0
2016-10-27T03:48:14.668Z,0
2016-10-27T03:48:40.224Z,0
2016-10-27T03:49:05.790Z,0
2016-10-27T03:50:34.669Z,0
2016-10-27T03:51:00.230Z,0
2016-10-27T03:51:25.790Z,0
2016-10-27T03:52:39.213Z,0
2016-10-27T03:53:04.896Z,0
2016-10-27T03:53:30.619Z,0
2016-10-27T03:53:56.317Z,0
2016-10-27T03:54:21.888Z,0
2016-10-27T03:54:47.453Z,0
2016-10-27T03:55:13.020Z,0
2016-10-27T03:55:38.578Z,0
2016-10-27T03:56:04.179Z,0
2016-10-27T03:56:29.866Z,0
2016-10-27T03:56:55.417Z,0
2016-10-27T03:57:20.991Z,0
2016-10-27T03:57:46.713Z,0
2016-10-27T03:58:12.300Z,0
2016-10-27T03:58:37.868Z,0
2016-10-27T03:59:03.478Z,0
2016-10-27T03:59:29.079Z,0
2016-10-27T03:59:54.641Z,0
2016-10-27T04:00:20.196Z,0
2016-10-27T04:00:45.857Z,0
2016-10-27T04:01:11.410Z,0
2016-10-27T04:01:36.987Z,0
2016-10-27T04:02:02.541Z,0
2016-10-27T04:02:28.086Z,0
2016-10-27T04:02:53.636Z,0
2016-10-27T04:03:19.183Z,0
2016-10-27T04:03:44.761Z,0
2016-10-27T04:04:10.358Z,0
2016-10-27T04:04:35.937Z,0
2016-10-27T04:05:01.501Z,0
2016-10-27T04:05:27.090Z,0
2016-10-27T04:05:52.770Z,0
2016-10-27T04:06:18.369Z,0
2016-10-27T04:06:43.976Z,0
2016-10-27T04:07:09.597Z,0
2016-10-27T04:07:35.174Z,0
2016-10-27T04:08:00.736Z,0
2016-10-27T04:08:26.371Z,0
2016-10-27T04:08:51.953Z,0
2016-10-27T04:09:17.515Z,0
2016-10-27T04:09:43.083Z,0
2016-10-27T04:10:08.644Z,0
2016-10-27T04:10:34.230Z,0
2016-10-27T04:11:42.827Z,0
2016-10-27T04:12:08.413Z,0
2016-10-27T04:12:33.978Z,0
2016-10-27T04:12:59.546Z,0
2016-10-27T04:13:25.109Z,0
2016-10-27T04:13:50.754Z,0
2016-10-27T04:14:16.320Z,0
2016-10-27T04:14:41.881Z,0
2016-10-27T04:16:10.776Z,0
2016-10-27T04:16:36.341Z,0
2016-10-27T04:17:01.888Z,0
2016-10-27T04:17:27.461Z,0
2016-10-27T04:17:53.021Z,0
2016-10-27T04:18:18.577Z,0
2016-10-27T04:18:44.195Z,0
2016-10-27T04:19:09.760Z,0
2016-10-27T04:19:35.306Z,0
2016-10-27T04:20:00.902Z,0
2016-10-27T04:20:26.471Z,0
2016-10-27T04:20:52.028Z,0
2016-10-27T04:21:17.565Z,0
2016-10-27T04:21:43.191Z,0
2016-10-27T04:22:08.737Z,0
2016-10-27T04:23:37.655Z,0
2016-10-27T04:24:03.219Z,0
2016-10-27T04:24:28.773Z,0
2016-10-27T04:24:54.340Z,0
2016-10-27T04:25:19.994Z,0
2016-10-27T04:25:45.641Z,0
2016-10-27T04:26:11.199Z,0
2016-10-27T04:26:36.735Z,0
2016-10-27T04:27:02.288Z,0
2016-10-27T04:27:27.863Z,0
2016-10-27T04:27:53.420Z,0
2016-10-27T04:28:18.994Z,0
2016-10-27T04:28:44.621Z,0
2016-10-27T04:29:10.191Z,0
2016-10-27T04:29:35.778Z,0
2016-10-27T04:30:01.328Z,0
2016-10-27T04:30:26.925Z,0
2016-10-27T04:30:52.506Z,0
2016-10-27T04:31:18.071Z,0
2016-10-27T04:31:43.631Z,0
2016-10-27T04:32:09.197Z,0
2016-10-27T04:32:34.772Z,0
2016-10-27T04:33:00.332Z,0
2016-10-27T04:33:25.913Z,0
2016-10-27T04:33:51.459Z,0
2016-10-27T04:34:17.101Z,0
2016-10-27T04:34:42.663Z,0
2016-10-27T04:35:08.213Z,0
2016-10-27T04:35:33.778Z,0
2016-10-27T04:35:59.340Z,0
2016-10-27T04:36:24.970Z,0
2016-10-27T04:36:50.509Z,0
2016-10-27T04:37:16.088Z,0
2016-10-27T04:37:41.668Z,0
2016-10-27T04:38:07.229Z,0
2016-10-27T04:38:32.796Z,0
2016-10-27T04:38:58.373Z,0
2016-10-27T04:39:23.927Z,0
2016-10-27T04:39:49.535Z,0
2016-10-27T04:40:15.113Z,0
2016-10-27T04:40:40.669Z,0
2016-10-27T04:41:06.268Z,0
2016-10-27T04:41:31.856Z,0
2016-10-27T04:41:57.417Z,0
2016-10-27T04:42:22.993Z,0
2016-10-27T04:42:48.567Z,0
2016-10-27T04:43:14.127Z,0
2016-10-27T04:43:39.709Z,0
2016-10-27T04:44:05.305Z,0
2016-10-27T04:44:30.862Z,0
2016-10-27T04:44:56.501Z,0
2016-10-27T04:45:22.081Z,0
2016-10-27T04:45:47.662Z,0
2016-10-27T04:46:13.222Z,0
2016-10-27T04:46:38.804Z,0
2016-10-27T04:47:04.361Z,0
2016-10-27T04:47:29.956Z,0
2016-10-27T04:47:55.563Z,0
2016-10-27T04:48:21.119Z,0
2016-10-27T04:48:46.695Z,0
2016-10-27T04:49:12.262Z,0
2016-10-27T04:49:37.843Z,0
2016-10-27T04:50:03.408Z,0
2016-10-27T04:50:28.955Z,0
2016-10-27T04:50:54.522Z,0
2016-10-27T04:51:20.080Z,0
2016-10-27T04:51:45.675Z,0
2016-10-27T04:52:11.228Z,0
2016-10-27T04:52:36.823Z,0
2016-10-27T04:53:02.384Z,0
2016-10-27T04:53:27.966Z,0
2016-10-27T04:53:53.624Z,0
2016-10-27T04:54:19.278Z,0
2016-10-27T04:54:44.843Z,0
2016-10-27T04:55:10.424Z,0
2016-10-27T04:55:36.080Z,0
2016-10-27T04:56:01.629Z,0
2016-10-27T04:56:27.193Z,0
2016-10-27T04:56:52.851Z,0
2016-10-27T04:57:18.434Z,0
2016-10-27T04:57:43.996Z,0
2016-10-27T04:58:09.655Z,0
2016-10-27T04:58:35.261Z,0
2016-10-27T04:59:00.837Z,0
2016-10-27T04:59:26.477Z,0
2016-10-27T04:59:52.041Z,0
2016-10-27T05:00:17.613Z,0
2016-10-27T05:00:43.276Z,0
2016-10-27T05:01:08.885Z,0
2016-10-27T05:01:34.445Z,0
2016-10-27T05:02:00.017Z,0
2016-10-27T05:02:25.671Z,0
2016-10-27T05:02:51.229Z,0
2016-10-27T05:03:16.789Z,0
2016-10-27T05:03:42.355Z,0
2016-10-27T05:04:08.090Z,0
2016-10-27T05:04:33.645Z,0
2016-10-27T05:04:59.213Z,0
2016-10-27T05:05:24.916Z,0
2016-10-27T05:06:38.361Z,0
2016-10-27T05:07:03.911Z,0
2016-10-27T05:07:29.481Z,0
2016-10-27T05:07:55.061Z,0
2016-10-27T05:08:20.631Z,0
2016-10-27T05:08:46.198Z,0
2016-10-27T05:09:11.762Z,0
2016-10-27T05:09:37.324Z,0
2016-10-27T05:10:02.885Z,0
2016-10-27T05:10:28.454Z,0
2016-10-27T05:10:54.012Z,0
2016-10-27T05:11:19.562Z,0
2016-10-27T05:11:45.244Z,0
2016-10-27T05:12:10.807Z,0
2016-10-27T05:12:36.367Z,0
2016-10-27T05:13:01.925Z,0
2016-10-27T05:13:27.491Z,0
2016-10-27T05:13:53.045Z,0
2016-10-27T05:14:18.608Z,0
2016-10-27T05:14:44.184Z,0
2016-10-27T05:15:09.763Z,0
2016-10-27T05:15:35.321Z,0
2016-10-27T05:16:00.905Z,0
2016-10-27T05:16:26.481Z,0
2016-10-27T05:16:52.026Z,0
2016-10-27T05:17:17.624Z,0
2016-10-27T05:17:43.193Z,0
2016-10-27T05:18:08.743Z,0
2016-10-27T05:18:34.294Z,0
2016-10-27T05:18:59.996Z,0
2016-10-27T05:19:25.567Z,0
2016-10-27T05:19:51.170Z,0
2016-10-27T05:20:16.712Z,0
2016-10-27T05:20:42.386Z,0
2016-10-27T05:21:07.960Z,0
2016-10-27T05:21:33.580Z,0
2016-10-27T05:21:59.143Z,0
2016-10-27T05:22:24.711Z,0
2016-10-27T05:22:50.332Z,0
2016-10-27T05:23:15.940Z,0
2016-10-27T05:23:41.521Z,0
2016-10-27T05:24:07.083Z,0
2016-10-27T05:24:32.645Z,0
2016-10-27T05:24:58.202Z,0
2016-10-27T05:25:23.794Z,0
2016-10-27T05:25:49.340Z,0
2016-10-27T05:26:14.909Z,0
2016-10-27T05:26:40.555Z,0
2016-10-27T05:27:06.132Z,0
2016-10-27T05:27:31.721Z,0
2016-10-27T05:27:57.292Z,0
2016-10-27T05:28:22.857Z,0
2016-10-27T05:28:48.412Z,0
2016-10-27T05:29:13.972Z,0
2016-10-27T05:29:39.561Z,0
2016-10-27T05:30:05.122Z,0
2016-10-27T05:30:30.679Z,0
2016-10-27T05:33:34.270Z,0
2016-10-27T05:33:59.822Z,0
2016-10-27T05:34:25.378Z,0
2016-10-27T05:34:50.927Z,0
2016-10-27T05:35:16.673Z,0
2016-10-27T05:35:42.308Z,0
2016-10-27T05:36:07.871Z,0
2016-10-27T05:36:33.422Z,0
2016-10-27T05:36:58.963Z,0
2016-10-27T05:37:24.529Z,0
2016-10-27T05:37:50.086Z,0
2016-10-27T05:38:15.627Z,0
2016-10-27T05:41:34.373Z,0
2016-10-27T05:41:59.921Z,0
2016-10-27T05:42:25.512Z,0
2016-10-27T05:42:51.053Z,0
2016-10-27T05:43:16.616Z,0
2016-10-27T05:43:42.168Z,0
2016-10-27T05:44:07.770Z,0
2016-10-27T05:44:33.419Z,0
2016-10-27T05:44:58.972Z,0
2016-10-27T05:45:24.632Z,0
2016-10-27T05:45:50.214Z,0
2016-10-27T05:46:15.791Z,0
2016-10-27T05:46:41.357Z,0
2016-10-27T05:47:07.028Z,0
2016-10-27T05:47:32.669Z,0
2016-10-27T05:47:58.263Z,0
2016-10-27T05:48:23.822Z,0
2016-10-27T05:48:49.407Z,0
2016-10-27T05:49:14.958Z,0
2016-10-27T05:49:40.548Z,0
2016-10-27T05:50:06.108Z,0
2016-10-27T05:50:31.711Z,0
2016-10-27T05:50:57.319Z,0
2016-10-27T05:51:22.978Z,0
2016-10-27T05:51:48.533Z,0
2016-10-27T05:52:14.101Z,0
2016-10-27T05:52:39.747Z,0
2016-10-27T05:53:05.376Z,0
2016-10-27T05:53:31.105Z,0
2016-10-27T05:53:56.690Z,0
2016-10-27T05:54:22.258Z,0
2016-10-27T05:54:47.822Z,0
2016-10-27T05:55:13.437Z,0
2016-10-27T05:55:39.018Z,0
2016-10-27T05:56:04.578Z,0
2016-10-27T05:56:30.258Z,0
2016-10-27T05:56:55.879Z,0
2016-10-27T05:57:21.440Z,0
2016-10-27T05:57:47.012Z,0
2016-10-27T05:58:13.272Z,0
2016-10-27T05:58:38.897Z,0
2016-10-27T05:59:04.474Z,0
2016-10-27T05:59:30.042Z,0
2016-10-27T05:59:55.591Z,0
2016-10-27T06:00:21.214Z,0
2016-10-27T06:01:34.669Z,0
2016-10-27T06:02:00.250Z,0
2016-10-27T06:02:25.804Z,0
2016-10-27T06:02:51.355Z,0
2016-10-27T06:03:16.920Z,0
2016-10-27T06:03:42.493Z,0
2016-10-27T06:04:08.046Z,0
2016-10-27T06:04:33.692Z,0
2016-10-27T06:04:59.224Z,0
2016-10-27T06:05:24.794Z,0
2016-10-27T06:05:50.380Z,0
2016-10-27T06:06:15.939Z,0
2016-10-27T06:06:41.497Z,0
2016-10-27T06:07:07.109Z,0
2016-10-27T06:07:32.703Z,0
2016-10-27T06:07:58.271Z,0
2016-10-27T06:08:23.861Z,0
2016-10-27T06:08:49.451Z,0
2016-10-27T06:09:15.017Z,0
2016-10-27T06:09:40.579Z,0
2016-10-27T06:10:06.139Z,0
2016-10-27T06:10:31.722Z,0
2016-10-27T06:10:57.303Z,0
2016-10-27T06:11:22.851Z,0
2016-10-27T06:11:48.485Z,0
2016-10-27T06:12:14.093Z,0
2016-10-27T06:12:39.658Z,0
2016-10-27T06:13:05.216Z,0
2016-10-27T06:13:30.779Z,0
2016-10-27T06:13:56.371Z,0
2016-10-27T06:14:21.935Z,0
2016-10-27T06:14:47.573Z,0
2016-10-27T06:15:13.146Z,0
2016-10-27T06:15:38.683Z,0
2016-10-27T06:16:04.248Z,0
2016-10-27T06:16:29.811Z,0
2016-10-27T06:16:55.493Z,0
2016-10-27T06:17:21.036Z,0
2016-10-27T06:17:46.642Z,0
2016-10-27T06:18:12.328Z,0
2016-10-27T06:18:37.905Z,0
2016-10-27T06:19:03.474Z,0
2016-10-27T06:19:29.023Z,0
2016-10-27T06:20:42.548Z,0
2016-10-27T06:21:08.121Z,0
2016-10-27T06:21:33.679Z,0
2016-10-27T06:21:59.237Z,0
2016-10-27T06:22:24.898Z,0
2016-10-27T06:22:50.465Z,0
2016-10-27T06:23:16.016Z,0
2016-10-27T06:23:41.700Z,0
2016-10-27T06:24:07.284Z,0
2016-10-27T06:24:32.853Z,0
2016-10-27T06:24:58.444Z,0
2016-10-27T06:25:23.992Z,0
2016-10-27T06:26:37.454Z,0
2016-10-27T06:27:03.013Z,0
2016-10-27T06:27:28.651Z,0
2016-10-27T06:27:54.199Z,0
2016-10-27T06:28:19.738Z,0
2016-10-27T06:28:45.292Z,0
2016-10-27T06:29:10.856Z,0
2016-10-27T06:29:36.440Z,0
2016-10-27T06:30:02.050Z,0
2016-10-27T06:30:27.607Z,5
2016-10-27T06:30:53.159Z,5
2016-10-27T06:31:18.826Z,5
2016-10-27T06:31:44.384Z,5
2016-10-27T06:32:09.935Z,5
2016-10-27T06:32:35.594Z,5
2016-10-27T06:33:01.136Z,5
2016-10-27T06:33:26.731Z,5
2016-10-27T06:33:52.295Z,5
2016-10-27T06:34:17.842Z,5
2016-10-27T06:34:43.421Z,5
2016-10-27T06:35:08.994Z,5
2016-10-27T06:36:37.777Z,5
2016-10-27T06:37:03.328Z,5
2016-10-27T06:37:28.888Z,5
2016-10-27T06:39:45.519Z,5
2016-10-27T06:40:11.092Z,5
2016-10-27T06:40:36.642Z,5
2016-10-27T06:41:02.203Z,5
2016-10-27T06:41:27.766Z,5
2016-10-27T06:41:53.337Z,5
2016-10-27T06:42:19.086Z,5
2016-10-27T06:42:44.682Z,5
2016-10-27T06:43:10.260Z,5
2016-10-27T06:43:35.822Z,5
2016-10-27T06:44:01.372Z,5
2016-10-27T06:44:26.935Z,5
2016-10-27T06:44:52.512Z,10
2016-10-27T06:45:18.075Z,10
2016-10-27T06:45:43.775Z,10
2016-10-27T06:46:09.327Z,10
2016-10-27T06:46:34.888Z,5
2016-10-27T06:47:00.461Z,10
2016-10-27T06:47:26.114Z,10
2016-10-27T06:47:51.661Z,10
2016-10-27T06:48:17.219Z,10
2016-10-27T06:48:42.766Z,10
2016-10-27T06:49:08.326Z,10
2016-10-27T06:49:33.911Z,10
2016-10-27T06:49:59.488Z,10
2016-10-27T06:50:25.042Z,10
2016-10-27T06:50:50.602Z,10
2016-10-27T06:51:16.166Z,10
2016-10-27T06:51:41.742Z,10
2016-10-27T06:52:07.293Z,10
2016-10-27T06:52:32.854Z,10
2016-10-27T06:52:58.402Z,10
2016-10-27T06:53:23.965Z,10
2016-10-27T06:53:49.511Z,10
2016-10-27T06:54:15.104Z,10
2016-10-27T06:54:40.794Z,10
2016-10-27T06:55:06.356Z,10
2016-10-27T06:55:31.924Z,10
2016-10-27T06:55:57.484Z,10
2016-10-27T06:56:23.046Z,10
2016-10-27T06:56:48.611Z,10
2016-10-27T06:57:14.242Z,10
2016-10-27T06:57:39.795Z,10
2016-10-27T06:58:05.350Z,5
2016-10-27T06:58:30.973Z,10
2016-10-27T06:58:56.534Z,5
2016-10-27T06:59:22.108Z,10
2016-10-27T06:59:47.676Z,10
2016-10-27T07:00:13.229Z,10
2016-10-27T07:00:38.807Z,10
2016-10-27T07:01:04.388Z,10
2016-10-27T07:01:29.947Z,10
2016-10-27T07:01:55.608Z,10
2016-10-27T07:02:21.174Z,10
2016-10-27T07:02:46.732Z,10
2016-10-27T07:03:12.333Z,10
2016-10-27T07:03:37.894Z,10
2016-10-27T07:04:03.456Z,10
2016-10-27T07:04:28.994Z,10
2016-10-27T07:04:54.581Z,10
2016-10-27T07:05:20.136Z,10
2016-10-27T07:06:38.778Z,10
2016-10-27T07:07:04.336Z,10
2016-10-27T07:07:29.897Z,10
2016-10-27T07:07:55.449Z,10
2016-10-27T07:08:21.046Z,10
2016-10-27T07:08:46.603Z,10
2016-10-27T07:09:12.157Z,10
2016-10-27T07:09:37.732Z,10
2016-10-27T07:10:03.238Z,10
2016-10-27T07:10:28.768Z,10
2016-10-27T07:10:54.330Z,10
2016-10-27T07:11:19.888Z,10
2016-10-27T07:11:45.479Z,10
2016-10-27T07:12:11.059Z,10
2016-10-27T07:12:36.638Z,10
2016-10-27T07:13:02.211Z,10
2016-10-27T07:13:27.779Z,10
2016-10-27T07:13:53.339Z,10
2016-10-27T07:14:18.881Z,15
2016-10-27T07:14:44.430Z,15
2016-10-27T07:15:10.009Z,15
2016-10-27T07:15:35.566Z,10
2016-10-27T07:16:01.142Z,10
2016-10-27T07:16:26.800Z,10
2016-10-27T07:16:52.349Z,10
2016-10-27T07:17:17.923Z,15
2016-10-27T07:17:43.555Z,15
2016-10-27T07:18:09.188Z,10
2016-10-27T07:18:34.768Z,10
2016-10-27T07:19:00.302Z,10
2016-10-27T07:19:25.899Z,10
2016-10-27T07:19:51.469Z,15
2016-10-27T07:20:17.008Z,15
2016-10-27T07:20:42.559Z,15
2016-10-27T07:21:08.124Z,20
2016-10-27T07:21:33.689Z,20
2016-10-27T07:21:59.388Z,20
2016-10-27T07:22:24.937Z,25
2016-10-27T07:23:43.505Z,25
2016-10-27T07:24:09.101Z,25
2016-10-27T07:25:27.641Z,30
2016-10-27T07:25:53.209Z,30
2016-10-27T07:26:18.776Z,30
2016-10-27T07:26:44.340Z,30
2016-10-27T07:27:09.901Z,35
2016-10-27T07:27:35.454Z,40
2016-10-27T07:28:01.089Z,35
2016-10-27T07:28:26.652Z,30
2016-10-27T07:28:52.289Z,25
2016-10-27T07:29:17.853Z,25
2016-10-27T07:29:43.414Z,25
2016-10-27T07:30:08.986Z,25
2016-10-27T07:30:34.574Z,30
2016-10-27T07:31:00.150Z,30
2016-10-27T07:31:25.794Z,30
2016-10-27T07:31:51.347Z,30
2016-10-27T07:32:16.919Z,35
2016-10-27T07:32:42.467Z,35
2016-10-27T07:33:08.095Z,35
2016-10-27T07:33:33.646Z,30
2016-10-27T07:33:59.198Z,25
2016-10-27T07:34:25.030Z,25
2016-10-27T07:34:50.611Z,25
2016-10-27T07:35:16.176Z,25
2016-10-27T07:35:41.798Z,30
2016-10-27T07:36:07.377Z,25
2016-10-27T07:36:32.924Z,25
2016-10-27T07:36:58.609Z,25
2016-10-27T07:37:24.202Z,20
2016-10-27T07:37:49.776Z,25
2016-10-27T07:38:15.362Z,25
2016-10-27T07:38:40.965Z,25
2016-10-27T07:39:06.549Z,25
2016-10-27T07:39:32.118Z,25
2016-10-27T07:39:57.774Z,25
2016-10-27T07:40:23.370Z,25
2016-10-27T07:40:48.952Z,20
2016-10-27T07:41:14.621Z,20
2016-10-27T07:41:40.205Z,25
2016-10-27T07:42:05.783Z,25
2016-10-27T07:42:31.411Z,25
2016-10-27T07:42:56.996Z,25
2016-10-27T07:43:22.562Z,25
2016-10-27T07:43:48.241Z,30
2016-10-27T07:44:13.792Z,25
2016-10-27T07:44:39.372Z,30
2016-10-27T07:45:04.930Z,30
2016-10-27T07:45:30.518Z,30
2016-10-27T07:45:56.061Z,30
2016-10-27T07:46:21.605Z,30
2016-10-27T07:46:47.172Z,30
2016-10-27T07:47:12.753Z,30
2016-10-27T07:49:39.616Z,30
2016-10-27T07:50:05.169Z,30
2016-10-27T07:50:30.720Z,30
2016-10-27T07:50:56.331Z,30
2016-10-27T07:51:21.925Z,30
2016-10-27T07:51:47.490Z,25
2016-10-27T07:52:13.052Z,30
2016-10-27T07:53:26.580Z,30
2016-10-27T07:53:52.166Z,35
2016-10-27T07:54:17.745Z,35
2016-10-27T07:57:28.203Z,40
2016-10-27T07:57:53.757Z,40
2016-10-27T07:58:19.314Z,40
2016-10-27T07:58:44.979Z,40
2016-10-27T07:59:10.545Z,45
2016-10-27T07:59:36.199Z,45
2016-10-27T08:00:01.774Z,45
2016-10-27T08:00:27.345Z,40
2016-10-27T08:00:52.882Z,40
2016-10-27T08:01:18.492Z,35
2016-10-27T08:01:44.109Z,40
2016-10-27T08:02:09.683Z,40
2016-10-27T08:02:35.280Z,40
2016-10-27T08:03:00.840Z,45
2016-10-27T08:03:26.392Z,45
2016-10-27T08:03:51.976Z,45
2016-10-27T08:04:17.553Z,45
2016-10-27T08:05:25.856Z,50
2016-10-27T08:05:51.421Z,45
2016-10-27T08:06:17.008Z,45
2016-10-27T08:06:42.579Z,40
2016-10-27T08:07:08.128Z,40
2016-10-27T08:07:33.694Z,40
2016-10-27T08:07:59.251Z,40
2016-10-27T08:08:24.817Z,35
2016-10-27T08:08:50.413Z,35
2016-10-27T08:09:15.952Z,35
2016-10-27T08:09:41.517Z,35
2016-10-27T08:10:07.086Z,35
2016-10-27T08:10:32.638Z,35
2016-10-27T08:10:58.333Z,35
2016-10-27T08:11:24.037Z,40
2016-10-27T08:11:49.605Z,40
2016-10-27T08:12:15.158Z,40
2016-10-27T08:12:40.705Z,40
2016-10-27T08:13:06.252Z,35
2016-10-27T08:13:31.802Z,35
2016-10-27T08:13:57.426Z,35
2016-10-27T08:14:23.083Z,35
2016-10-27T08:14:48.574Z,35
2016-10-27T08:15:14.174Z,35
2016-10-27T08:15:39.732Z,35
2016-10-27T08:16:05.307Z,35
2016-10-27T08:16:30.957Z,40
2016-10-27T08:16:56.530Z,40
2016-10-27T08:17:22.182Z,35
2016-10-27T08:17:47.767Z,35
2016-10-27T08:18:13.326Z,35
2016-10-27T08:18:38.875Z,40
2016-10-27T08:19:04.435Z,40
2016-10-27T08:19:29.991Z,35
2016-10-27T08:19:55.549Z,35
2016-10-27T08:20:21.107Z,35
2016-10-27T08:20:46.655Z,35
2016-10-27T08:21:12.197Z,35
2016-10-27T08:21:37.777Z,35
2016-10-27T08:22:03.322Z,35
2016-10-27T08:22:28.911Z,40
2016-10-27T08:22:54.434Z,45
2016-10-27T08:23:20.049Z,45
2016-10-27T08:23:45.739Z,45
2016-10-27T08:24:11.320Z,45
2016-10-27T08:24:36.877Z,45
2016-10-27T08:25:02.429Z,45
2016-10-27T08:25:27.990Z,45
2016-10-27T08:25:53.585Z,45
2016-10-27T08:26:19.147Z,45
2016-10-27T08:26:44.696Z,40
2016-10-27T08:27:10.330Z,40
2016-10-27T08:27:35.943Z,40
2016-10-27T08:28:01.501Z,45
2016-10-27T08:28:27.060Z,50
2016-10-27T08:28:52.715Z,60
2016-10-27T08:29:18.277Z,55
2016-10-27T08:29:43.834Z,50
2016-10-27T08:30:09.437Z,55
2016-10-27T08:30:35.078Z,60
2016-10-27T08:31:00.746Z,60
2016-10-27T08:31:26.302Z,60
2016-10-27T08:31:51.880Z,65
2016-10-27T08:32:17.440Z,55
2016-10-27T08:32:43.008Z,50
2016-10-27T08:33:08.677Z,45
2016-10-27T08:33:34.315Z,50
2016-10-27T08:33:59.888Z,50
2016-10-27T08:34:25.587Z,50
2016-10-27T08:34:51.161Z,50
2016-10-27T08:35:16.736Z,50
2016-10-27T08:35:42.371Z,50
2016-10-27T08:36:07.943Z,50
2016-10-27T08:36:33.525Z,55
2016-10-27T08:36:59.080Z,55
2016-10-27T08:37:24.825Z,55
2016-10-27T08:37:50.413Z,55
2016-10-27T08:38:15.984Z,60
2016-10-27T08:38:41.559Z,60
2016-10-27T08:39:07.157Z,65
2016-10-27T08:39:32.720Z,65
2016-10-27T08:39:58.290Z,65
2016-10-27T08:40:23.832Z,70
2016-10-27T08:40:49.401Z,70
2016-10-27T08:41:14.923Z,65
2016-10-27T08:41:40.477Z,65
2016-10-27T08:42:06.050Z,65
2016-10-27T08:42:31.645Z,65
2016-10-27T08:42:57.203Z,60
2016-10-27T08:43:22.776Z,55
2016-10-27T08:43:48.339Z,50
2016-10-27T08:44:13.910Z,50
2016-10-27T08:44:39.471Z,50
2016-10-27T08:45:05.029Z,50
2016-10-27T08:45:30.586Z,55
2016-10-27T08:45:56.138Z,55
2016-10-27T08:46:21.694Z,50
2016-10-27T08:46:47.255Z,55
2016-10-27T08:47:12.802Z,60
2016-10-27T08:47:38.371Z,55
2016-10-27T08:48:03.914Z,55
2016-10-27T08:48:29.512Z,55
2016-10-27T08:48:55.129Z,55
2016-10-27T08:49:20.704Z,55
2016-10-27T08:49:46.439Z,50
2016-10-27T08:50:11.994Z,50
2016-10-27T08:50:37.572Z,50
2016-10-27T08:51:03.104Z,55
2016-10-27T08:51:28.782Z,55
2016-10-27T08:52:47.402Z,50
2016-10-27T08:53:12.972Z,55
2016-10-27T08:53:38.558Z,55
2016-10-27T08:54:04.186Z,55
2016-10-27T08:54:29.741Z,50
2016-10-27T08:54:55.299Z,45
2016-10-27T08:55:20.986Z,45
2016-10-27T08:55:46.570Z,45
2016-10-27T08:56:12.199Z,45
2016-10-27T08:56:37.812Z,45
2016-10-27T08:57:03.380Z,45
2016-10-27T08:57:28.957Z,45
2016-10-27T08:57:54.539Z,45
2016-10-27T08:58:20.192Z,45
2016-10-27T08:58:45.751Z,55
2016-10-27T08:59:11.331Z,60
2016-10-27T08:59:36.860Z,60
2016-10-27T09:00:02.416Z,65
2016-10-27T09:00:27.979Z,75
2016-10-27T09:00:53.544Z,80
2016-10-27T09:01:19.099Z,70
2016-10-27T09:02:47.959Z,100
2016-10-27T09:03:13.507Z,110
2016-10-27T09:03:39.058Z,115
2016-10-27T09:04:04.648Z,125
2016-10-27T09:04:30.240Z,130
2016-10-27T09:04:55.789Z,135
2016-10-27T09:05:21.441Z,135
2016-10-27T09:05:47.053Z,130
2016-10-27T09:06:12.605Z,125
2016-10-27T09:06:38.163Z,125
2016-10-27T09:07:03.719Z,115
2016-10-27T09:07:29.259Z,120
2016-10-27T09:07:54.801Z,110
2016-10-27T09:08:20.346Z,80
2016-10-27T09:08:45.902Z,65
2016-10-27T09:09:11.472Z,60
2016-10-27T09:09:37.023Z,55
2016-10-27T09:10:02.596Z,55
2016-10-27T09:10:28.157Z,55
2016-10-27T09:10:53.721Z,55
2016-10-27T09:11:19.266Z,60
2016-10-27T09:12:32.748Z,65
2016-10-27T09:12:58.329Z,65
2016-10-27T09:13:23.878Z,65
2016-10-27T09:13:49.450Z,65
2016-10-27T09:14:15.018Z,65
2016-10-27T09:14:40.596Z,70
2016-10-27T09:15:06.159Z,70
2016-10-27T09:15:31.733Z,80
2016-10-27T09:15:57.393Z,85
2016-10-27T09:16:23.009Z,80
2016-10-27T09:16:48.567Z,80
2016-10-27T09:17:14.161Z,80
2016-10-27T09:17:39.721Z,75
2016-10-27T09:18:05.291Z,65
2016-10-27T09:18:30.848Z,65
2016-10-27T09:18:56.459Z,65
2016-10-27T09:19:22.024Z,65
2016-10-27T09:19:47.572Z,80
2016-10-27T09:20:13.160Z,100
2016-10-27T09:20:38.749Z,120
2016-10-27T09:21:04.295Z,125
2016-10-27T09:21:29.930Z,135
2016-10-27T09:21:55.481Z,145
2016-10-27T09:22:21.118Z,130
2016-10-27T09:22:46.764Z,110
2016-10-27T09:23:12.308Z,100
2016-10-27T09:23:37.873Z,90
2016-10-27T09:24:03.410Z,90
2016-10-27T09:24:28.965Z,105
2016-10-27T09:24:54.604Z,105
2016-10-27T09:25:20.178Z,95
2016-10-27T09:25:45.763Z,75
2016-10-27T09:26:11.304Z,65
2016-10-27T09:26:37.119Z,65
2016-10-27T09:27:02.679Z,60
2016-10-27T09:27:28.226Z,60
2016-10-27T09:27:53.842Z,65
2016-10-27T09:28:19.379Z,75
2016-10-27T09:28:44.939Z,80
2016-10-27T09:29:10.538Z,75
2016-10-27T09:29:36.111Z,75
2016-10-27T09:30:01.690Z,70
2016-10-27T09:30:27.342Z,65
2016-10-27T09:30:52.903Z,65
2016-10-27T09:31:18.466Z,75
2016-10-27T09:31:44.018Z,80
2016-10-27T09:32:09.776Z,80
2016-10-27T09:33:38.547Z,85
2016-10-27T09:34:04.106Z,95
2016-10-27T09:34:29.675Z,100
2016-10-27T09:34:55.326Z,85
2016-10-27T09:35:20.910Z,75
2016-10-27T09:35:46.487Z,75
2016-10-27T09:36:12.123Z,70
2016-10-27T09:36:37.682Z,65
2016-10-27T09:37:03.401Z,65
2016-10-27T09:37:28.859Z,65
2016-10-27T09:37:54.413Z,65
2016-10-27T09:38:19.953Z,60
2016-10-27T09:38:45.519Z,60
2016-10-27T09:39:11.074Z,65
2016-10-27T09:39:36.634Z,65
2016-10-27T09:40:02.282Z,60
2016-10-27T09:40:27.845Z,60
2016-10-27T09:40:53.558Z,60
2016-10-27T09:41:19.140Z,55
2016-10-27T09:41:44.722Z,50
2016-10-27T09:42:10.339Z,50
2016-10-27T09:42:35.970Z,50
2016-10-27T09:43:01.554Z,60
2016-10-27T09:43:27.119Z,60
2016-10-27T09:43:52.771Z,55
2016-10-27T09:44:18.337Z,50
2016-10-27T09:44:43.888Z,50
2016-10-27T09:45:09.544Z,50
2016-10-27T09:45:35.153Z,50
2016-10-27T09:46:00.707Z,45
2016-10-27T09:46:26.263Z,50
2016-10-27T09:46:51.867Z,55
2016-10-27T09:47:17.432Z,55
2016-10-27T09:47:42.998Z,60
2016-10-27T09:48:08.565Z,60
2016-10-27T09:48:34.137Z,60